Time;durP1;ratioP1;P1;durP2;ratioP2;P2;SDS_P1;SDS_P2;PMS_P1;PMS_P2;Temp;Humidity;BMP_temperature;BMP_pressure;BME280_temperature;BME280_humidity;BME280_pressure;Samples;Min_cycle;Max_cycle;Signal;HPM_P1;HPM_P2
2021/07/24 00:49:35;;;;;;;17.85;9.05;;;15.30;99.90;;;;;;6000177;23;20387;-96
2021/07/24 00:52:44;;;;;;;16.20;9.67;;;15.40;99.90;;;;;;4941114;28;20439;-96
2021/07/24 01:14:09;;;;;;;16.17;9.47;;;15.30;99.90;;;;;;4482984;23;20703;31
2021/07/24 06:03:37;;;;;;;15.98;9.02;;;17.90;99.90;;;;;;1079156;23;20672;-95
2021/07/24 06:41:19;;;;;;;10.05;6.65;;;29.30;78.40;;;;;;5579976;23;20432;-94
2021/07/24 06:43:46;;;;;;;9.05;6.68;;;29.10;73.20;;;;;;4963349;29;20603;-94
2021/07/24 06:46:32;;;;;;;10.02;7.20;;;28.80;75.60;;;;;;4959970;28;20955;-95
2021/07/24 06:49:00;;;;;;;9.53;7.00;;;28.80;76.80;;;;;;4964263;28;20820;-92
2021/07/24 06:51:27;;;;;;;12.23;7.03;;;28.40;75.10;;;;;;4962129;28;20406;-92
2021/07/24 06:53:54;;;;;;;9.48;6.82;;;27.90;79.20;;;;;;4960110;28;20493;-91
2021/07/24 06:56:21;;;;;;;12.53;6.80;;;27.50;81.00;;;;;;4958242;28;20488;-91
2021/07/24 06:58:50;;;;;;;11.13;7.15;;;27.20;83.10;;;;;;4963435;29;20422;-91
2021/07/24 07:01:17;;;;;;;14.38;7.60;;;26.70;84.70;;;;;;4960706;29;20520;-91
2021/07/24 07:03:45;;;;;;;10.13;7.68;;;26.20;83.30;;;;;;4963113;28;20430;-96
2021/07/24 07:06:13;;;;;;;16.05;7.35;;;25.60;86.30;;;;;;4960549;28;20512;-92
2021/07/24 07:08:41;;;;;;;13.27;7.80;;;25.40;87.00;;;;;;4961313;28;20450;-88
2021/07/24 07:11:08;;;;;;;11.80;7.47;;;25.20;88.90;;;;;;4959190;28;20460;-90
2021/07/24 07:13:36;;;;;;;9.48;7.50;;;25.00;87.20;;;;;;4960344;29;20414;-96
2021/07/24 07:16:08;;;;;;;127.05;13.55;;;25.00;87.00;;;;;;4959216;28;20438;-88
2021/07/24 07:18:37;;;;;;;10.93;7.50;;;25.10;89.80;;;;;;4959816;28;20441;-94
2021/07/24 07:21:07;;;;;;;11.43;7.78;;;24.80;90.00;;;;;;4957532;29;20441;-91
2021/07/24 07:23:34;;;;;;;15.25;8.00;;;24.80;88.90;;;;;;4956345;28;20925;-91
2021/07/24 07:26:02;;;;;;;13.48;7.85;;;24.70;91.90;;;;;;4956930;29;20422;-93
2021/07/24 07:28:29;;;;;;;10.57;7.60;;;24.60;92.00;;;;;;4956541;28;20513;-93
2021/07/24 07:30:56;;;;;;;11.57;7.55;;;24.30;93.20;;;;;;4959485;28;20434;-94
2021/07/24 07:33:23;;;;;;;10.93;8.00;;;24.20;93.80;;;;;;4968478;28;20425;-93
2021/07/24 07:35:50;;;;;;;11.80;7.85;;;24.00;92.60;;;;;;4972371;28;20807;-93
2021/07/24 07:38:17;;;;;;;14.68;8.18;;;23.90;94.20;;;;;;4958256;28;20758;-96
2021/07/24 07:40:44;;;;;;;11.65;7.85;;;23.80;94.20;;;;;;4958103;28;20430;-94
2021/07/24 07:43:12;;;;;;;12.82;8.10;;;23.60;94.00;;;;;;4956183;28;20429;-92
2021/07/24 07:45:42;;;;;;;11.27;8.20;;;23.50;96.20;;;;;;4965913;28;20433;-96
2021/07/24 07:48:14;;;;;;;10.98;8.23;;;23.50;96.00;;;;;;4960296;29;20429;-92
2021/07/24 07:50:43;;;;;;;12.60;7.90;;;23.50;95.00;;;;;;4956151;29;20429;-89
2021/07/24 07:53:10;;;;;;;12.57;7.82;;;23.30;95.10;;;;;;4955577;28;20437;-90
2021/07/24 07:55:41;;;;;;;14.93;8.38;;;23.30;96.70;;;;;;4957824;29;20430;-91
2021/07/24 07:58:12;;;;;;;13.95;8.07;;;23.30;97.30;;;;;;4955938;29;20429;-89
2021/07/24 08:00:38;;;;;;;11.52;8.30;;;23.30;97.80;;;;;;4955715;28;20434;-89
2021/07/24 08:03:06;;;;;;;12.02;8.50;;;23.50;96.90;;;;;;4955020;29;20445;-89
2021/07/24 08:05:33;;;;;;;13.15;8.57;;;23.60;97.90;;;;;;4955115;28;20440;-90
2021/07/24 08:08:00;;;;;;;13.57;8.00;;;23.80;96.70;;;;;;4955392;28;20910;-90
2021/07/24 08:10:27;;;;;;;10.85;8.10;;;24.00;97.70;;;;;;4954686;28;20846;-89
2021/07/24 08:12:54;;;;;;;12.40;8.17;;;24.00;96.70;;;;;;4956232;28;20430;-89
2021/07/24 08:15:22;;;;;;;12.13;8.23;;;24.10;95.30;;;;;;4955250;29;20532;-90
2021/07/24 08:17:49;;;;;;;10.55;8.07;;;24.10;97.90;;;;;;4955108;29;20421;-89
2021/07/24 08:20:16;;;;;;;13.00;8.48;;;23.90;96.10;;;;;;4954948;29;20438;-88
2021/07/24 08:22:43;;;;;;;12.83;8.20;;;23.90;99.60;;;;;;4955058;28;20445;-89
2021/07/24 08:25:10;;;;;;;14.00;8.57;;;24.00;99.40;;;;;;4955575;28;20426;-91
2021/07/24 08:27:37;;;;;;;14.88;8.48;;;24.20;98.00;;;;;;4956244;28;20436;-90
2021/07/24 08:30:05;;;;;;;13.95;8.45;;;23.90;98.60;;;;;;4955200;28;20458;-90
2021/07/24 08:32:33;;;;;;;11.75;7.65;;;23.80;99.90;;;;;;4956178;28;20458;-91
2021/07/24 08:35:00;;;;;;;11.82;8.20;;;23.80;98.40;;;;;;4956036;28;20425;-91
2021/07/24 08:37:27;;;;;;;14.73;8.50;;;23.90;99.90;;;;;;4954882;28;20429;-91
2021/07/24 08:39:54;;;;;;;11.27;8.70;;;23.90;99.20;;;;;;4955598;28;20512;-91
2021/07/24 08:42:33;;;;;;;13.32;8.07;;;24.00;98.40;;;;;;4954389;28;20438;-91
2021/07/24 08:45:00;;;;;;;12.10;8.23;;;24.00;97.40;;;;;;4954781;28;20520;-91
2021/07/24 08:47:29;;;;;;;12.80;8.07;;;24.20;96.90;;;;;;4954718;28;20517;-91
2021/07/24 08:49:56;;;;;;;13.82;8.23;;;24.30;93.00;;;;;;4954870;28;20448;-91
2021/07/24 08:52:28;;;;;;;13.02;7.65;;;24.30;94.20;;;;;;4955104;28;20429;-92
2021/07/24 08:54:57;;;;;;;11.93;8.02;;;24.30;94.50;;;;;;4955057;28;20501;-92
2021/07/24 08:57:31;;;;;;;12.35;8.15;;;24.50;96.20;;;;;;4954755;28;20430;-91
2021/07/24 09:00:05;;;;;;;14.80;8.27;;;24.60;96.70;;;;;;4954561;29;20433;-90
2021/07/24 09:02:37;;;;;;;11.07;7.78;;;24.80;95.20;;;;;;4955294;29;20744;-89
2021/07/24 09:05:06;;;;;;;12.02;8.10;;;24.60;92.00;;;;;;4956728;29;20430;-93
2021/07/24 09:07:38;;;;;;;13.52;7.93;;;24.50;95.00;;;;;;4957625;28;20838;-91
2021/07/24 09:10:08;;;;;;;12.10;8.07;;;24.50;93.80;;;;;;4955671;28;20989;-92
2021/07/24 09:12:36;;;;;;;11.18;8.57;;;24.70;93.50;;;;;;4959462;28;20437;-92
2021/07/24 09:15:05;;;;;;;13.23;8.20;;;24.80;94.10;;;;;;4972372;28;20441;-89
2021/07/24 09:17:32;;;;;;;10.65;7.93;;;24.90;94.70;;;;;;4963855;28;20422;-91
2021/07/24 09:20:00;;;;;;;11.10;7.70;;;25.00;95.80;;;;;;4959697;28;20440;-94
2021/07/24 09:22:27;;;;;;;12.23;8.00;;;25.60;91.20;;;;;;4954747;28;20433;-94
2021/07/24 09:25:03;;;;;;;11.63;7.95;;;25.90;91.40;;;;;;4958777;28;20431;-93
2021/07/24 09:27:30;;;;;;;12.45;8.10;;;26.30;91.40;;;;;;4966111;28;20432;-95
2021/07/24 09:29:57;;;;;;;14.70;7.90;;;26.80;95.70;;;;;;4960204;28;20450;-94
2021/07/24 09:32:25;;;;;;;12.27;7.65;;;27.30;86.00;;;;;;4953489;28;20469;-96
2021/07/24 09:34:52;;;;;;;9.00;7.40;;;27.40;86.80;;;;;;4981050;28;20428;-93
2021/07/24 09:38:02;;;;;;;12.45;7.90;;;27.30;86.80;;;;;;4978962;28;20486;-95
2021/07/24 09:40:48;;;;;;;12.18;8.10;;;27.10;86.50;;;;;;4970522;28;20415;-95
2021/07/24 09:43:44;;;;;;;12.15;7.78;;;27.20;90.40;;;;;;4992427;28;20408;-95
2021/07/24 09:46:20;;;;;;;11.00;8.07;;;26.80;86.70;;;;;;4982550;28;20436;-95
2021/07/24 09:48:52;;;;;;;10.90;8.05;;;26.60;87.60;;;;;;4986993;28;20432;-95
2021/07/24 09:51:39;;;;;;;11.43;7.80;;;26.30;90.70;;;;;;4985402;28;20446;-94
2021/07/24 09:54:21;;;;;;;12.85;8.27;;;26.30;87.80;;;;;;4985221;28;20771;-94
2021/07/24 09:56:51;;;;;;;11.40;7.95;;;26.00;92.10;;;;;;4982456;28;20452;-95
2021/07/24 09:59:32;;;;;;;10.82;8.10;;;25.90;87.30;;;;;;4980520;28;20470;-95
2021/07/24 10:02:02;;;;;;;11.38;8.32;;;25.80;91.60;;;;;;4962440;28;20489;-96
2021/07/24 10:04:31;;;;;;;12.75;9.07;;;26.00;86.90;;;;;;4960143;28;20825;-93
2021/07/24 10:07:04;;;;;;;12.57;8.52;;;26.20;87.50;;;;;;4958591;28;20434;-94
2021/07/24 10:09:33;;;;;;;10.85;8.00;;;26.50;86.80;;;;;;4965007;29;20446;-93
2021/07/24 10:12:05;;;;;;;11.37;7.77;;;26.30;89.80;;;;;;4962289;28;20526;-92
2021/07/24 10:14:35;;;;;;;12.55;7.82;;;26.30;86.50;;;;;;4961171;28;20434;-92
2021/07/24 10:17:02;;;;;;;19.40;7.88;;;26.20;90.20;;;;;;4959129;28;20503;-89
2021/07/24 10:19:29;;;;;;;11.55;7.97;;;26.20;93.90;;;;;;4957529;29;20437;-92
2021/07/24 10:21:58;;;;;;;11.32;8.13;;;26.20;90.70;;;;;;4958539;28;20426;-90
2021/07/24 10:24:26;;;;;;;13.50;8.60;;;26.00;87.90;;;;;;4957586;29;20454;-89
2021/07/24 10:27:10;;;;;;;11.10;8.10;;;26.20;89.30;;;;;;4959025;28;20429;-90
2021/07/24 10:30:03;;;;;;;11.32;8.13;;;26.20;91.40;;;;;;4957272;28;20454;-90
2021/07/24 10:32:37;;;;;;;13.65;7.95;;;26.30;91.50;;;;;;4957559;29;20418;-91
2021/07/24 10:35:06;;;;;;;12.50;8.67;;;26.20;86.90;;;;;;4958107;28;20438;-89
2021/07/24 10:37:49;;;;;;;12.35;8.50;;;26.20;89.10;;;;;;4957205;28;20441;-91
2021/07/24 10:40:27;;;;;;;13.10;8.45;;;26.20;91.80;;;;;;4956720;28;20493;-91
2021/07/24 10:42:55;;;;;;;11.32;8.55;;;26.10;90.10;;;;;;4956942;28;20433;-92
2021/07/24 10:45:35;;;;;;;12.95;8.07;;;26.20;92.70;;;;;;4955869;28;20446;-89
2021/07/24 10:48:14;;;;;;;12.40;8.32;;;26.40;91.40;;;;;;4956861;29;20957;-90
2021/07/24 10:50:53;;;;;;;12.48;8.38;;;26.50;90.80;;;;;;4957368;29;20446;-91
2021/07/24 10:53:22;;;;;;;12.82;8.60;;;26.50;90.80;;;;;;4957086;29;20425;-92
2021/07/24 10:55:52;;;;;;;12.80;8.20;;;26.50;91.60;;;;;;4970031;28;20442;-92
2021/07/24 10:58:25;;;;;;;11.13;8.55;;;26.40;88.10;;;;;;4966731;28;20501;-89
2021/07/24 11:00:57;;;;;;;19.52;8.60;;;26.40;92.10;;;;;;4957093;28;20493;-91
2021/07/24 11:03:31;;;;;;;13.25;8.38;;;26.60;90.20;;;;;;4956898;28;20792;-89
2021/07/24 11:06:19;;;;;;;13.27;8.02;;;26.80;89.00;;;;;;4956784;28;20941;-95
2021/07/24 11:09:09;;;;;;;15.55;9.00;;;27.10;89.20;;;;;;4957312;28;20516;-96
2021/07/24 11:11:38;;;;;;;13.00;8.57;;;27.20;90.10;;;;;;4957086;29;20516;-95
2021/07/24 11:14:06;;;;;;;13.15;8.45;;;26.90;92.10;;;;;;4957883;28;20434;-96
2021/07/24 11:17:05;;;;;;;13.13;8.63;;;27.00;84.50;;;;;;4941661;29;20434;-95
2021/07/24 11:19:38;;;;;;;12.35;8.23;;;27.10;83.70;;;;;;4950418;29;20781;-94
2021/07/24 11:22:28;;;;;;;13.10;8.85;;;27.10;82.10;;;;;;4956745;28;20960;-95
2021/07/24 11:24:55;;;;;;;13.98;8.07;;;26.60;85.30;;;;;;4957210;28;20755;-95
2021/07/24 11:32:40;;;;;;;12.57;8.53;;;26.70;90.40;;;;;;1851890;23;20713;-91
2021/07/24 11:35:08;;;;;;;12.73;8.43;;;26.80;91.60;;;;;;4954720;28;20434;-95
2021/07/24 11:37:36;;;;;;;12.23;8.52;;;27.00;85.80;;;;;;4940261;29;20520;-94
2021/07/24 11:40:06;;;;;;;15.68;8.88;;;27.00;88.80;;;;;;4940101;29;20433;-95
2021/07/24 11:42:34;;;;;;;13.52;8.60;;;27.10;82.90;;;;;;4941206;29;20434;-94
2021/07/24 11:45:01;;;;;;;11.60;8.57;;;27.20;83.30;;;;;;4956911;28;20421;-92
2021/07/24 11:47:28;;;;;;;13.95;8.63;;;27.50;81.80;;;;;;4940153;29;20441;-94
2021/07/24 11:50:15;;;;;;;14.38;9.40;;;27.60;90.00;;;;;;4940193;29;20438;-92
2021/07/24 11:52:42;;;;;;;13.65;8.57;;;28.00;84.00;;;;;;4940025;29;20437;-94
2021/07/24 11:55:10;;;;;;;10.75;8.30;;;28.00;84.00;;;;;;4939503;29;20422;-94
2021/07/24 11:57:37;;;;;;;12.15;9.00;;;28.00;79.50;;;;;;4939534;29;20441;-93
2021/07/24 12:00:05;;;;;;;17.67;9.13;;;28.30;81.80;;;;;;4940499;29;20433;-95
2021/07/24 12:16:06;;;;;;;12.02;8.23;;;29.20;81.20;;;;;;4922275;29;20422;-95
2021/07/24 12:18:44;;;;;;;10.50;8.10;;;29.40;80.90;;;;;;4920283;29;20530;-94
2021/07/24 12:21:13;;;;;;;10.52;8.10;;;29.70;78.60;;;;;;4922721;29;20932;-94
2021/07/24 12:24:02;;;;;;;12.18;8.50;;;30.10;79.20;;;;;;4922113;29;20429;-93
2021/07/24 12:26:33;;;;;;;11.25;8.05;;;30.10;87.00;;;;;;4920312;29;20508;-93
2021/07/24 12:29:22;;;;;;;10.60;7.82;;;30.20;81.40;;;;;;4917585;29;20841;-94
2021/07/24 12:31:50;;;;;;;11.10;8.30;;;30.80;76.10;;;;;;4918631;29;20463;-93
2021/07/24 12:34:22;;;;;;;10.80;8.20;;;30.90;77.10;;;;;;4917544;29;20501;-94
2021/07/24 12:36:58;;;;;;;9.43;7.40;;;31.30;73.60;;;;;;4935348;29;20417;-93
2021/07/24 12:39:36;;;;;;;11.50;8.13;;;31.90;73.10;;;;;;4931994;29;20431;-95
2021/07/24 12:42:12;;;;;;;12.25;8.02;;;31.80;68.80;;;;;;4923366;29;20488;-88
2021/07/24 12:45:06;;;;;;;11.53;7.90;;;31.80;75.80;;;;;;4927267;23;20433;-95
2021/07/24 12:47:38;;;;;;;11.35;8.18;;;32.40;71.00;;;;;;4953440;28;20418;-95
2021/07/24 12:50:16;;;;;;;11.95;7.90;;;32.20;66.40;;;;;;4955441;28;20785;-94
2021/07/24 12:52:45;;;;;;;12.02;7.97;;;31.90;67.20;;;;;;4955874;28;20759;-94
2021/07/24 12:55:23;;;;;;;10.30;8.30;;;31.30;67.20;;;;;;4956708;28;20437;-92
2021/07/24 12:57:50;;;;;;;10.67;8.40;;;31.00;68.00;;;;;;4955459;28;20778;-91
2021/07/24 13:00:44;;;;;;;11.30;7.90;;;30.80;68.00;;;;;;4955081;28;20434;-94
2021/07/24 13:19:44;;;;;;;15.63;8.93;;;30.90;73.10;;;;;;4885633;29;20481;-90
2021/07/24 13:22:11;;;;;;;15.32;9.18;;;30.40;77.90;;;;;;4887246;29;20869;-94
2021/07/24 13:56:18;;;;;;;15.93;9.75;;;27.00;89.90;;;;;;5522590;23;20542;-90
2021/07/24 14:05:29;;;;;;;16.50;9.98;;;26.60;88.00;;;;;;5280710;23;20415;31
2021/07/24 14:14:07;;;;;;;17.65;9.85;;;26.50;87.60;;;;;;5932026;23;20432;-95
2021/07/24 16:48:57;;;;;;;14.83;10.37;;;22.50;99.90;;;;;;4950452;28;21484;-96
2021/07/24 16:51:24;;;;;;;15.68;10.45;;;22.20;99.90;;;;;;4880553;29;20503;-94
2021/07/24 16:53:52;;;;;;;14.82;10.50;;;22.00;99.90;;;;;;4870899;29;20466;-95
2021/07/24 16:56:22;;;;;;;16.85;10.52;;;21.80;99.90;;;;;;4866102;29;20444;-95
2021/07/24 16:59:04;;;;;;;17.08;10.75;;;21.70;99.90;;;;;;4866011;29;20432;-94
2021/07/24 17:01:31;;;;;;;17.30;10.85;;;21.70;99.90;;;;;;4864495;29;20441;-92
2021/07/24 17:04:01;;;;;;;19.42;10.57;;;21.60;99.90;;;;;;4866471;29;21007;-89
2021/07/24 17:06:44;;;;;;;16.10;10.93;;;21.60;99.90;;;;;;4864121;29;20428;-88
2021/07/24 17:09:11;;;;;;;15.13;10.45;;;21.80;99.90;;;;;;4863705;29;20440;-88
2021/07/24 17:11:43;;;;;;;17.43;10.47;;;21.90;99.90;;;;;;4879732;29;20532;-89
2021/07/24 17:14:15;;;;;;;15.52;10.93;;;21.70;99.90;;;;;;4863759;29;20428;-90
2021/07/24 17:16:43;;;;;;;14.43;11.07;;;21.50;99.90;;;;;;4863704;29;20448;-88
2021/07/24 17:19:10;;;;;;;16.45;10.98;;;21.60;99.90;;;;;;4863659;29;20512;-91
2021/07/24 17:21:37;;;;;;;16.05;11.30;;;21.60;99.90;;;;;;4864127;29;20435;-93
2021/07/24 17:24:10;;;;;;;16.57;11.80;;;21.50;99.90;;;;;;4870354;29;20850;-94
2021/07/24 17:26:37;;;;;;;17.35;11.43;;;21.50;99.90;;;;;;4864092;29;20940;-92
2021/07/24 17:29:04;;;;;;;15.88;11.50;;;21.40;99.90;;;;;;4864396;29;20515;-94
2021/07/24 17:31:33;;;;;;;17.02;11.85;;;21.30;99.90;;;;;;4864686;29;20519;-93
2021/07/24 17:34:00;;;;;;;21.38;11.45;;;21.20;99.90;;;;;;4865092;29;20528;-94
2021/07/24 17:36:53;;;;;;;17.90;11.27;;;21.10;99.90;;;;;;4864991;29;20460;-91
2021/07/24 17:39:26;;;;;;;20.58;11.98;;;21.00;99.90;;;;;;4840532;29;20428;-92
2021/07/24 17:41:53;;;;;;;15.63;11.68;;;20.90;99.90;;;;;;4879345;29;20432;-91
2021/07/24 17:44:20;;;;;;;14.93;10.95;;;20.90;99.90;;;;;;4864239;29;20437;-93
2021/07/24 17:46:47;;;;;;;14.45;10.93;;;20.90;99.90;;;;;;4864086;29;20437;-96
2021/07/24 17:49:14;;;;;;;16.08;11.48;;;20.90;99.90;;;;;;4863598;29;20961;-95
2021/07/24 17:51:42;;;;;;;22.83;11.57;;;20.80;99.90;;;;;;4864346;29;20452;-96
2021/07/24 17:54:09;;;;;;;16.63;11.20;;;20.70;99.90;;;;;;4864614;29;20504;-96
2021/07/24 17:56:36;;;;;;;15.85;10.85;;;20.50;99.90;;;;;;4867632;29;20528;-96
2021/07/24 17:59:03;;;;;;;16.67;10.77;;;20.60;99.90;;;;;;4868520;29;20437;-96
2021/07/24 18:01:30;;;;;;;19.77;10.95;;;20.60;99.90;;;;;;4870138;29;20441;-96
2021/07/24 18:03:58;;;;;;;14.27;10.60;;;20.60;99.90;;;;;;4868080;29;20436;-95
2021/07/24 18:06:25;;;;;;;16.98;10.65;;;20.40;99.90;;;;;;4867053;29;20436;-95
2021/07/24 18:08:53;;;;;;;17.90;10.55;;;20.40;99.90;;;;;;4871714;29;20516;-96
2021/07/24 18:11:21;;;;;;;13.27;10.60;;;20.20;99.90;;;;;;4869083;29;20519;-95
2021/07/24 18:13:50;;;;;;;21.10;11.30;;;20.00;99.90;;;;;;4867710;29;20435;-96
2021/07/24 18:16:19;;;;;;;20.98;10.77;;;19.90;99.90;;;;;;4866952;29;20432;-94
2021/07/24 18:18:50;;;;;;;16.88;11.10;;;19.90;99.90;;;;;;4866790;29;20443;-95
2021/07/24 18:21:19;;;;;;;15.47;10.60;;;20.00;99.90;;;;;;4871077;29;20515;-96
2021/07/24 18:23:53;;;;;;;16.92;10.32;;;20.00;99.90;;;;;;4869293;29;20579;-96
2021/07/24 18:26:40;;;;;;;13.45;10.68;;;20.00;99.90;;;;;;4882615;29;20477;-96
2021/07/24 18:29:08;;;;;;;19.60;10.20;;;20.20;99.90;;;;;;4870285;29;20941;-96
2021/07/24 18:31:36;;;;;;;15.15;9.90;;;20.30;99.90;;;;;;4868999;29;20517;-96
2021/07/24 18:34:03;;;;;;;16.23;10.18;;;20.40;99.90;;;;;;4868742;29;20464;-96
2021/07/24 19:39:16;;;;;;;36.30;17.92;;;18.70;99.90;;;;;;5719276;23;20421;-96
2021/07/24 19:44:57;;;;;;;29.33;18.77;;;18.40;99.90;;;;;;5231298;23;20411;-96
2021/07/24 19:47:27;;;;;;;34.22;20.48;;;18.00;99.90;;;;;;4975241;28;20433;-96
2021/07/24 19:50:09;;;;;;;38.22;22.25;;;17.90;99.90;;;;;;4994725;28;20412;-96
2021/07/24 20:05:31;;;;;;;35.63;23.25;;;17.40;99.90;;;;;;5678691;23;20515;-96
2021/07/24 20:11:46;;;;;;;35.53;23.45;;;17.40;99.90;;;;;;5076460;23;21987;-96
2021/07/24 20:14:34;;;;;;;40.10;25.63;;;17.30;99.90;;;;;;5023621;23;20442;-96
2021/07/24 20:17:41;;;;;;;55.03;33.95;;;17.20;99.90;;;;;;5011735;23;20428;-96
2021/07/24 20:20:20;;;;;;;42.90;27.97;;;17.20;99.90;;;;;;5036549;23;20475;-96
2021/07/24 20:23:09;;;;;;;55.33;32.17;;;17.20;99.90;;;;;;5048199;23;20450;-96
2021/07/24 20:44:38;;;;;;;;;;;;;;;;;;;;;
2021/07/24 20:48:21;;;;;;;309.75;54.13;;;16.70;99.90;;;;;;4888202;29;20593;-96
2021/07/24 20:50:55;;;;;;;63.30;33.15;;;16.70;99.90;;;;;;5000634;23;20485;-96
2021/07/24 20:53:23;;;;;;;64.57;31.63;;;16.60;99.90;;;;;;4961776;28;20414;-96
2021/07/24 20:56:04;;;;;;;60.97;31.45;;;16.60;99.90;;;;;;4969370;23;20453;-96
2021/07/24 20:58:32;;;;;;;68.20;32.00;;;16.50;99.90;;;;;;4960777;28;20430;-96
2021/07/24 21:01:03;;;;;;;71.03;33.53;;;16.50;99.90;;;;;;4977814;28;20473;-95
2021/07/24 21:03:30;;;;;;;83.57;34.13;;;16.40;99.90;;;;;;4971825;28;20426;-96
2021/07/24 21:05:58;;;;;;;74.00;33.92;;;16.40;99.90;;;;;;4962634;28;20461;-96
2021/07/24 21:08:25;;;;;;;95.97;40.28;;;16.40;99.90;;;;;;4962561;28;20415;-96
2021/07/24 21:10:53;;;;;;;95.95;41.42;;;16.30;99.90;;;;;;4961607;28;20436;-96
2021/07/24 21:13:24;;;;;;;111.38;45.15;;;16.40;99.90;;;;;;4960713;28;20494;-96
2021/07/24 21:15:52;;;;;;;92.38;39.28;;;16.40;99.90;;;;;;4960079;28;20437;-96
2021/07/24 21:18:20;;;;;;;71.22;35.42;;;16.50;99.90;;;;;;4968426;23;20437;-95
2021/07/24 21:20:47;;;;;;;62.05;30.45;;;16.40;99.90;;;;;;4968203;23;20542;-96
2021/07/24 21:23:15;;;;;;;49.25;26.58;;;16.40;99.90;;;;;;4968557;23;20457;-96
2021/07/24 21:26:34;;;;;;;69.82;29.20;;;16.30;99.90;;;;;;4961941;28;20426;-96
2021/07/24 21:29:16;;;;;;;57.00;28.15;;;16.20;99.90;;;;;;4911680;29;20514;-96
2021/07/24 21:31:53;;;;;;;51.92;27.33;;;16.20;99.90;;;;;;4930330;29;20507;-96
2021/07/24 21:34:27;;;;;;;44.72;24.42;;;16.30;99.90;;;;;;4949888;23;20413;-96
2021/07/24 21:36:54;;;;;;;37.87;20.57;;;16.20;99.90;;;;;;4967218;28;20524;-96
2021/07/24 21:39:22;;;;;;;48.95;26.20;;;16.10;99.90;;;;;;4963788;28;20500;-96
2021/07/24 21:41:50;;;;;;;44.30;23.58;;;16.10;99.90;;;;;;4964695;28;20509;-95
2021/07/24 21:44:17;;;;;;;42.30;19.20;;;16.00;99.90;;;;;;4961232;29;20440;-95
2021/07/24 21:46:44;;;;;;;0.60;0.60;;;16.00;99.90;;;;;;4960606;28;20430;-96
2021/07/24 21:49:11;;;;;;;0.60;0.60;;;15.90;99.90;;;;;;4961292;28;20425;-95
2021/07/24 21:51:40;;;;;;;2.70;0.60;;;15.90;99.90;;;;;;4982393;23;20440;-95
2021/07/24 21:54:07;;;;;;;1.90;0.80;;;15.90;99.90;;;;;;4982456;28;20474;-95
2021/07/24 21:56:37;;;;;;;0.57;0.57;;;15.80;99.90;;;;;;4984895;28;20434;-95
2021/07/24 21:59:20;;;;;;;0.52;0.52;;;15.70;99.90;;;;;;4980736;28;20427;-95
2021/07/24 22:01:47;;;;;;;0.20;0.20;;;15.70;99.90;;;;;;4982052;28;20435;-94
2021/07/24 22:04:19;;;;;;;0.80;0.80;;;15.60;99.90;;;;;;4986212;28;20443;-95
2021/07/24 22:06:47;;;;;;;2.10;1.03;;;15.60;99.90;;;;;;4984740;28;20759;-95
2021/07/24 22:09:15;;;;;;;0.63;0.52;;;15.60;99.90;;;;;;4983786;28;20439;-95
2021/07/24 22:11:42;;;;;;;0.20;0.20;;;15.60;99.90;;;;;;4981338;28;20687;-95
2021/07/24 22:14:09;;;;;;;0.32;0.32;;;15.60;99.90;;;;;;4981826;28;20428;-96
2021/07/24 22:16:43;;;;;;;0.85;0.75;;;15.50;99.90;;;;;;4984590;28;20507;-95
2021/07/24 22:19:10;;;;;;;21.05;1.02;;;15.50;99.90;;;;;;4981436;28;20451;-95
2021/07/24 22:21:38;;;;;;;0.77;0.57;;;15.40;99.90;;;;;;4982180;28;20780;-96
2021/07/24 22:24:05;;;;;;;6.50;1.40;;;15.50;99.90;;;;;;4980429;28;20430;-96
2021/07/24 22:26:35;;;;;;;3.50;0.80;;;15.40;99.90;;;;;;4980800;28;20451;-96
2021/07/24 22:29:03;;;;;;;22.65;0.85;;;15.50;99.90;;;;;;4963777;28;20440;-96
2021/07/24 22:31:41;;;;;;;0.53;0.30;;;15.40;99.90;;;;;;4978582;28;20858;-96
2021/07/24 22:34:12;;;;;;;0.27;0.27;;;15.30;99.90;;;;;;4980116;28;20428;-95
2021/07/24 22:36:39;;;;;;;0.37;0.37;;;15.40;99.90;;;;;;4981748;28;20455;-96
2021/07/24 22:39:06;;;;;;;0.60;0.60;;;15.30;99.90;;;;;;4981820;28;20484;-96
2021/07/24 22:41:37;;;;;;;0.90;0.60;;;15.40;99.90;;;;;;4992070;28;20437;-96
2021/07/24 22:44:04;;;;;;;1.40;0.52;;;15.40;99.90;;;;;;4969258;29;20449;-96
2021/07/24 22:46:34;;;;;;;0.32;0.32;;;15.40;99.90;;;;;;4962833;28;20422;-96
2021/07/24 22:49:02;;;;;;;1.08;0.55;;;15.50;99.90;;;;;;4961108;28;20477;-96
2021/07/24 22:51:30;;;;;;;0.32;0.32;;;15.40;99.90;;;;;;4963758;28;20444;-96
2021/07/24 22:53:58;;;;;;;0.30;0.30;;;15.40;99.90;;;;;;4961163;28;20457;-96
2021/07/24 22:56:25;;;;;;;1.40;0.57;;;15.40;99.90;;;;;;4964216;28;20458;-96
2021/07/24 22:58:52;;;;;;;0.75;0.45;;;15.40;99.90;;;;;;4961780;28;20477;-96
2021/07/24 23:01:19;;;;;;;1.23;0.55;;;15.30;99.90;;;;;;4963197;28;20437;-96
2021/07/24 23:03:46;;;;;;;0.43;0.43;;;15.20;99.90;;;;;;4966062;28;20918;-96
2021/07/24 23:06:13;;;;;;;0.40;0.17;;;15.20;99.90;;;;;;4962906;28;20505;-95
2021/07/24 23:08:46;;;;;;;0.53;0.53;;;15.40;99.90;;;;;;4962454;28;20460;-96
2021/07/24 23:11:23;;;;;;;0.25;0.25;;;15.50;99.90;;;;;;4966339;28;20430;-96
2021/07/24 23:13:50;;;;;;;0.30;0.30;;;15.50;99.90;;;;;;4964171;28;20997;-95
2021/07/24 23:16:18;;;;;;;0.38;0.38;;;15.50;99.90;;;;;;4964103;29;20432;-95
2021/07/24 23:18:45;;;;;;;1.10;0.65;;;15.50;99.90;;;;;;4962868;29;20430;-95
2021/07/24 23:21:12;;;;;;;5.05;0.55;;;15.40;99.90;;;;;;4961190;28;20456;-96
2021/07/24 23:23:40;;;;;;;0.25;0.25;;;15.40;99.90;;;;;;4963754;28;20440;-96
2021/07/24 23:26:07;;;;;;;0.33;0.33;;;15.50;99.90;;;;;;4961797;29;20516;-96
2021/07/24 23:28:34;;;;;;;0.20;0.20;;;15.50;99.90;;;;;;4960503;28;21004;-96
2021/07/24 23:31:02;;;;;;;0.20;0.20;;;15.40;99.90;;;;;;4959169;28;20943;-96
2021/07/24 23:33:30;;;;;;;0.50;0.50;;;15.40;99.90;;;;;;4960466;28;20538;-96
2021/07/24 23:35:57;;;;;;;0.90;0.70;;;15.40;99.90;;;;;;4963143;28;20496;-96
2021/07/24 23:38:24;;;;;;;0.50;0.50;;;15.40;99.90;;;;;;4962238;28;20502;-96
2021/07/24 23:40:51;;;;;;;0.10;0.10;;;15.20;99.90;;;;;;4959258;28;20436;-95
2021/07/24 23:43:19;;;;;;;1.10;1.00;;;15.20;99.90;;;;;;4959736;28;20430;-96
2021/07/24 23:45:47;;;;;;;2.72;0.50;;;15.20;99.90;;;;;;4961972;28;20864;-96
2021/07/24 23:48:14;;;;;;;1.20;0.80;;;15.10;99.90;;;;;;4958885;28;20429;-96
2021/07/24 23:50:41;;;;;;;0.50;0.50;;;15.20;99.90;;;;;;4959987;28;20429;-95
2021/07/24 23:53:08;;;;;;;0.40;0.40;;;15.10;99.90;;;;;;4960666;28;20988;-96
2021/07/24 23:55:35;;;;;;;0.35;0.35;;;15.40;99.90;;;;;;4959208;28;20422;-96
2021/07/24 23:58:10;;;;;;;1.20;0.73;;;15.40;99.90;;;;;;4961769;28;20430;-96
